Anaheim Hills, California
Current Conditions -  °F | °C
As of 10:42 PM on Friday 24 Oct 2014 (Local Time) from KAJO Reporting Station
Scattered Clouds Scattered Clouds  
Wind Chill: 57°   Ceiling: Unl
Heat Index: 57°   Visibility: 10mi
Dew Point: 41°   Wind: 0mph
Humidity: 55%   Direction: NA
Pressure: 30.01"   Gusts: NA
Location:  33.8431°N, 117.777°W
Report Text: KAJO 250542Z AUTO 00000KT 10SM SCT001 SCT110 14/05 A3001 RMK AO2 $
Loading
Personal Weather Stations






























Interactive Weather Map New forecast layout! Learn more

10-Day Weather Forecast

Advertisements
Track Severe Weather on mobile